Time;durP1;ratioP1;P1;durP2;ratioP2;P2;SDS_P1;SDS_P2;PMS_P1;PMS_P2;Temp;Humidity;BMP_temperature;BMP_pressure;BME280_temperature;BME280_humidity;BME280_pressure;Samples;Min_cycle;Max_cycle;Signal;HPM_P1;HPM_P2
2021/07/27 00:00:38;;;;;;;28.92;20.38;;;19.60;99.90;;;;;;5027871;28;20384;-78
2021/07/27 00:03:04;;;;;;;41.17;27.23;;;19.60;99.90;;;;;;5025960;28;20064;-78
2021/07/27 00:05:31;;;;;;;30.92;21.95;;;19.60;99.90;;;;;;5045223;28;20035;-78
2021/07/27 00:07:58;;;;;;;33.03;22.45;;;19.60;99.90;;;;;;5046313;28;20041;-78
2021/07/27 00:10:26;;;;;;;32.33;21.73;;;19.60;99.90;;;;;;5043923;28;20040;-78
2021/07/27 00:12:52;;;;;;;32.45;21.50;;;19.60;99.90;;;;;;5042279;28;20500;-77
2021/07/27 00:15:19;;;;;;;34.70;22.13;;;19.60;99.90;;;;;;5044095;28;20041;-78
2021/07/27 00:17:45;;;;;;;34.50;23.05;;;19.60;99.90;;;;;;5044050;28;20052;-77
2021/07/27 00:20:12;;;;;;;35.08;23.60;;;19.60;99.90;;;;;;5043729;28;20056;-77
2021/07/27 00:22:40;;;;;;;34.95;23.35;;;19.60;99.90;;;;;;5041830;28;20099;-77
2021/07/27 00:25:10;;;;;;;36.10;23.98;;;19.60;99.90;;;;;;5042346;28;20084;-77
2021/07/27 00:27:37;;;;;;;33.53;23.00;;;19.60;99.90;;;;;;5026669;28;20040;-77
2021/07/27 00:30:06;;;;;;;38.53;25.88;;;19.50;99.90;;;;;;5044420;28;20407;-77
2021/07/27 00:32:41;;;;;;;32.58;22.70;;;19.50;99.90;;;;;;5042739;28;20579;-77
2021/07/27 00:35:10;;;;;;;36.42;23.75;;;19.50;99.90;;;;;;5043537;28;20052;-77
2021/07/27 00:37:42;;;;;;;37.40;24.27;;;19.50;99.90;;;;;;5043804;28;20068;-76
2021/07/27 00:40:10;;;;;;;45.60;26.52;;;19.50;99.90;;;;;;5043523;28;20047;-77
2021/07/27 00:42:46;;;;;;;41.38;26.95;;;19.50;99.90;;;;;;5042366;28;20060;-77
2021/07/27 00:45:14;;;;;;;43.40;26.13;;;19.40;99.90;;;;;;5024630;28;20048;-77
2021/07/27 00:47:41;;;;;;;36.90;25.52;;;19.40;99.90;;;;;;5043639;28;20049;-76
2021/07/27 00:50:09;;;;;;;38.60;25.73;;;19.40;99.90;;;;;;5043703;28;20052;-77
2021/07/27 00:52:37;;;;;;;37.55;24.08;;;19.40;99.90;;;;;;5041643;28;20045;-77
2021/07/27 00:55:04;;;;;;;45.88;27.33;;;19.40;99.90;;;;;;5040966;28;20052;-77
2021/07/27 00:57:31;;;;;;;43.53;28.33;;;19.40;99.90;;;;;;5026861;28;20037;-77
2021/07/27 00:59:58;;;;;;;41.65;28.30;;;19.40;99.90;;;;;;5043872;28;20043;-77
2021/07/27 01:02:24;;;;;;;46.47;29.23;;;19.40;99.90;;;;;;5021820;28;20512;-77
2021/07/27 01:04:51;;;;;;;47.50;29.70;;;19.40;99.90;;;;;;5040769;28;20053;-77
2021/07/27 01:07:18;;;;;;;45.10;29.52;;;19.30;99.90;;;;;;5042454;28;20392;-77
2021/07/27 01:09:45;;;;;;;40.65;27.25;;;19.30;99.90;;;;;;5044759;28;20051;-77
2021/07/27 01:12:11;;;;;;;46.00;30.23;;;19.30;99.90;;;;;;5025353;28;20045;-77
2021/07/27 01:14:37;;;;;;;47.47;30.35;;;19.30;99.90;;;;;;5042765;28;20087;-77
2021/07/27 01:17:04;;;;;;;40.20;26.08;;;19.30;99.90;;;;;;5025265;28;20196;-77
2021/07/27 01:19:50;;;;;;;46.13;30.92;;;19.30;99.90;;;;;;5025279;28;20041;-77
2021/07/27 01:43:50;;;;;;;45.47;32.05;;;19.20;99.90;;;;;;5041165;28;20037;-77
2021/07/27 01:46:17;;;;;;;51.85;32.85;;;19.20;99.90;;;;;;5042814;28;20036;-77
2021/07/27 01:48:44;;;;;;;47.22;31.13;;;19.20;99.90;;;;;;5042510;28;20507;-77
2021/07/27 01:51:11;;;;;;;43.20;30.52;;;19.20;99.90;;;;;;5025507;28;20407;-77
2021/07/27 01:53:46;;;;;;;42.67;29.83;;;19.20;99.90;;;;;;5021287;28;20034;-77
2021/07/27 01:56:14;;;;;;;45.05;30.33;;;19.20;99.90;;;;;;5024987;28;20053;-76
2021/07/27 01:58:40;;;;;;;44.22;30.23;;;19.10;99.90;;;;;;5043580;28;20377;-77
2021/07/27 02:01:07;;;;;;;51.35;32.53;;;19.10;99.90;;;;;;5025429;28;20492;-77
2021/07/27 02:03:34;;;;;;;41.60;28.85;;;19.10;99.90;;;;;;5038768;28;20048;-77
2021/07/27 02:06:00;;;;;;;40.95;28.80;;;19.10;99.90;;;;;;5007421;28;20049;-77
2021/07/27 02:08:27;;;;;;;41.17;27.13;;;19.10;99.90;;;;;;5043396;28;20036;-77
2021/07/27 02:11:04;;;;;;;41.25;28.80;;;19.00;99.90;;;;;;5040804;28;20381;-77
2021/07/27 02:13:44;;;;;;;39.83;27.88;;;19.00;99.90;;;;;;5037915;28;20044;-77
2021/07/27 02:16:11;;;;;;;37.70;25.63;;;19.00;99.90;;;;;;5024907;28;20041;-77
2021/07/27 02:18:37;;;;;;;51.42;33.08;;;19.00;99.90;;;;;;5042875;28;20037;-77
2021/07/27 02:21:04;;;;;;;49.13;30.42;;;19.00;99.90;;;;;;5041486;28;20254;-77
2021/07/27 02:23:30;;;;;;;49.65;33.53;;;18.90;99.90;;;;;;5021905;28;20492;-77
2021/07/27 02:25:57;;;;;;;40.95;29.67;;;19.00;99.90;;;;;;5008799;28;20036;-77
2021/07/27 02:28:23;;;;;;;41.05;29.90;;;18.90;99.90;;;;;;5022855;28;20052;-77
2021/07/27 02:31:01;;;;;;;42.22;29.90;;;18.90;99.90;;;;;;5042347;28;20052;-77
2021/07/27 02:33:29;;;;;;;44.90;29.92;;;18.90;99.90;;;;;;5038146;28;20045;-77
2021/07/27 02:35:56;;;;;;;41.33;29.20;;;18.90;99.90;;;;;;5023446;28;20056;-77
2021/07/27 02:38:23;;;;;;;49.22;32.75;;;18.90;99.90;;;;;;5025939;28;20052;-77
2021/07/27 02:40:49;;;;;;;47.45;34.55;;;18.90;99.90;;;;;;5040738;28;20030;-76
2021/07/27 02:43:16;;;;;;;44.47;31.77;;;18.90;99.90;;;;;;5005153;28;20925;-77
2021/07/27 02:45:42;;;;;;;43.70;30.08;;;19.00;99.90;;;;;;5041658;28;20041;-76
2021/07/27 02:48:08;;;;;;;47.75;32.85;;;19.00;99.90;;;;;;5044170;28;20041;-76
2021/07/27 02:50:35;;;;;;;47.22;31.85;;;19.00;99.90;;;;;;5027053;28;20051;-77
2021/07/27 02:53:01;;;;;;;46.72;30.95;;;19.00;99.90;;;;;;5041553;28;20032;-77
2021/07/27 02:55:28;;;;;;;53.63;34.72;;;19.00;99.90;;;;;;5039310;28;20033;-77
2021/07/27 02:57:54;;;;;;;55.03;35.22;;;19.00;99.90;;;;;;5041179;28;20052;-77
2021/07/27 03:00:21;;;;;;;53.13;37.22;;;19.00;99.90;;;;;;5042495;28;20036;-77
2021/07/27 03:02:47;;;;;;;54.97;38.22;;;18.90;99.90;;;;;;5039683;28;20041;-76
2021/07/27 03:05:16;;;;;;;52.25;37.15;;;18.90;99.90;;;;;;5040785;28;20041;-76
2021/07/27 03:10:22;;;;;;;50.75;37.28;;;18.90;99.90;;;;;;5042774;28;20369;-77
2021/07/27 03:12:56;;;;;;;48.22;33.22;;;18.90;99.90;;;;;;5038821;28;20072;-77
2021/07/27 03:15:25;;;;;;;46.33;31.83;;;18.90;99.90;;;;;;5041078;28;20051;-77
2021/07/27 03:17:53;;;;;;;50.05;35.50;;;18.90;99.90;;;;;;5009044;28;20045;-77
2021/07/27 03:20:20;;;;;;;50.78;36.50;;;18.90;99.90;;;;;;5025185;28;20045;-77
2021/07/27 03:22:47;;;;;;;52.75;37.53;;;18.90;99.90;;;;;;5042273;28;20037;-77
2021/07/27 03:25:15;;;;;;;49.75;36.53;;;18.90;99.90;;;;;;5040999;28;20037;-77
2021/07/27 03:27:43;;;;;;;57.33;40.20;;;18.90;99.90;;;;;;5025851;28;20055;-77
2021/07/27 03:30:10;;;;;;;55.20;37.83;;;18.80;99.90;;;;;;5009938;28;20056;-77
2021/07/27 03:32:37;;;;;;;47.00;34.47;;;18.80;99.90;;;;;;5043601;28;20036;-77
2021/07/27 03:35:05;;;;;;;49.35;35.30;;;18.80;99.90;;;;;;5042758;28;20033;-77
2021/07/27 03:37:35;;;;;;;45.47;33.90;;;18.90;99.90;;;;;;5026567;28;20494;-77
2021/07/27 03:40:02;;;;;;;47.42;33.85;;;18.90;99.90;;;;;;5043051;28;20045;-77
2021/07/27 03:42:28;;;;;;;45.47;32.58;;;18.90;99.90;;;;;;5023422;28;20045;-77
2021/07/27 03:44:56;;;;;;;55.03;39.03;;;18.90;99.90;;;;;;5043069;28;20048;-76
2021/07/27 03:47:23;;;;;;;49.97;36.78;;;18.90;99.90;;;;;;5044955;28;20032;-77
2021/07/27 03:49:49;;;;;;;52.50;37.85;;;18.90;99.90;;;;;;5044822;28;20037;-77
2021/07/27 03:52:16;;;;;;;48.45;35.80;;;18.90;99.90;;;;;;5044493;28;20384;-77
2021/07/27 03:54:42;;;;;;;54.40;37.38;;;18.90;99.90;;;;;;5044373;28;20048;-77
2021/07/27 03:57:11;;;;;;;53.92;39.08;;;18.90;99.90;;;;;;5044575;28;20070;-77
2021/07/27 03:59:38;;;;;;;53.42;39.38;;;18.90;99.90;;;;;;5011518;28;20152;-77
2021/07/27 04:02:04;;;;;;;56.47;40.58;;;18.80;99.90;;;;;;5045612;28;20041;-77
2021/07/27 04:04:35;;;;;;;54.47;39.42;;;18.80;99.90;;;;;;5042193;28;20045;-77
2021/07/27 04:07:01;;;;;;;50.45;38.28;;;18.80;99.90;;;;;;5042590;28;20392;-78
2021/07/27 04:09:28;;;;;;;47.20;34.78;;;18.80;99.90;;;;;;5045473;28;20039;-76
2021/07/27 04:11:55;;;;;;;52.35;34.28;;;18.80;99.90;;;;;;5047373;28;20032;-76
2021/07/27 04:14:22;;;;;;;49.13;36.80;;;18.80;99.90;;;;;;5047154;28;20033;-76
2021/07/27 04:16:48;;;;;;;50.20;36.63;;;18.80;99.90;;;;;;5043262;28;20044;-76
2021/07/27 04:19:14;;;;;;;43.88;34.67;;;18.80;99.90;;;;;;5029777;28;20033;-77
2021/07/27 04:21:41;;;;;;;45.25;35.42;;;18.80;99.90;;;;;;5043534;28;20045;-78
2021/07/27 04:24:08;;;;;;;45.53;35.65;;;18.80;99.90;;;;;;5043285;28;20040;-77
2021/07/27 04:26:34;;;;;;;43.45;32.97;;;18.70;99.90;;;;;;5045392;28;20041;-77
2021/07/27 04:29:01;;;;;;;43.38;32.25;;;18.70;99.90;;;;;;5023588;28;21173;-77
2021/07/27 04:31:27;;;;;;;44.47;33.35;;;18.70;99.90;;;;;;5044515;28;20033;-77
2021/07/27 04:33:54;;;;;;;40.67;31.45;;;18.70;99.90;;;;;;5018274;28;20036;-77
2021/07/27 04:36:20;;;;;;;40.05;30.45;;;18.70;99.90;;;;;;5043927;28;20479;-77
2021/07/27 04:38:46;;;;;;;42.40;30.70;;;18.60;99.90;;;;;;5045424;28;20052;-77
2021/07/27 04:41:25;;;;;;;38.17;28.98;;;18.60;99.90;;;;;;5114692;27;1263550;-79
2021/07/27 04:43:51;;;;;;;39.15;29.58;;;18.60;99.90;;;;;;5140632;27;20050;-78
2021/07/27 04:46:18;;;;;;;32.45;25.92;;;18.60;99.90;;;;;;5124331;27;20516;-79
2021/07/27 04:48:44;;;;;;;38.08;29.45;;;18.60;99.90;;;;;;5143347;27;20043;-79
2021/07/27 04:51:11;;;;;;;40.80;30.80;;;18.60;99.90;;;;;;5122230;27;20035;-79
2021/07/27 04:53:38;;;;;;;39.90;31.40;;;18.50;99.90;;;;;;5121791;27;20482;-78
2021/07/27 04:56:05;;;;;;;38.65;31.08;;;18.60;99.90;;;;;;5123293;27;20508;-79
2021/07/27 04:58:31;;;;;;;33.22;27.15;;;18.60;99.90;;;;;;5107007;27;20101;-79
2021/07/27 05:01:02;;;;;;;30.60;24.67;;;18.50;99.90;;;;;;5124303;27;20413;-79
2021/07/27 05:03:29;;;;;;;33.15;25.77;;;18.60;99.90;;;;;;5104094;27;20066;-79
2021/07/27 05:05:56;;;;;;;35.22;26.58;;;18.60;99.90;;;;;;5123451;27;20423;-79
2021/07/27 05:08:23;;;;;;;32.35;24.65;;;18.70;99.90;;;;;;5122704;27;20030;-79
2021/07/27 05:10:49;;;;;;;31.67;25.65;;;18.80;99.90;;;;;;5106878;27;20035;-79
2021/07/27 05:13:15;;;;;;;32.08;26.90;;;18.80;99.90;;;;;;5120780;27;20059;-79
2021/07/27 05:15:42;;;;;;;36.78;29.23;;;18.90;99.90;;;;;;5105783;27;20059;-79
2021/07/27 05:18:08;;;;;;;28.35;23.92;;;18.90;99.90;;;;;;5132287;27;20032;-79
2021/07/27 05:20:35;;;;;;;27.13;22.80;;;19.00;99.90;;;;;;5101947;28;20390;-79
2021/07/27 05:23:01;;;;;;;35.67;26.38;;;19.00;99.90;;;;;;5117305;28;20089;-79
2021/07/27 05:25:27;;;;;;;25.35;21.65;;;19.10;99.90;;;;;;5101918;28;20105;-79
2021/07/27 05:27:54;;;;;;;28.13;22.60;;;19.20;99.90;;;;;;5102699;28;20036;-79
2021/07/27 05:30:23;;;;;;;24.13;21.50;;;19.20;99.90;;;;;;5086062;28;20055;-79
2021/07/27 05:32:49;;;;;;;29.65;25.23;;;19.20;99.90;;;;;;5120426;28;20046;-79
2021/07/27 05:35:15;;;;;;;26.73;22.13;;;19.10;99.90;;;;;;5118777;27;20046;-79
2021/07/27 05:37:44;;;;;;;26.75;21.95;;;19.10;99.90;;;;;;5101752;28;20055;-79
2021/07/27 05:40:11;;;;;;;27.27;21.98;;;19.10;99.90;;;;;;5051975;28;20859;-78
2021/07/27 05:42:37;;;;;;;23.75;21.17;;;19.10;99.90;;;;;;5120917;27;20031;-78
2021/07/27 05:45:04;;;;;;;27.55;21.65;;;19.10;99.90;;;;;;5101277;28;20054;-78
2021/07/27 05:47:30;;;;;;;25.25;20.20;;;19.20;99.90;;;;;;5085974;28;20039;-78
2021/07/27 05:49:57;;;;;;;23.70;20.20;;;19.20;99.90;;;;;;5102796;28;20035;-79
2021/07/27 05:52:23;;;;;;;27.00;20.27;;;19.30;99.90;;;;;;5111182;28;20039;-79
2021/07/27 05:54:51;;;;;;;24.48;20.40;;;19.40;99.90;;;;;;5071554;28;20043;-79
2021/07/27 05:57:17;;;;;;;21.85;18.90;;;19.60;99.90;;;;;;5088010;28;20051;-79
2021/07/27 05:59:44;;;;;;;23.55;17.10;;;19.60;99.90;;;;;;5088537;28;20888;-78
2021/07/27 06:02:19;;;;;;;25.58;19.50;;;19.80;99.90;;;;;;5087708;28;20398;-78
2021/07/27 06:04:46;;;;;;;22.70;19.38;;;19.90;99.90;;;;;;5090253;28;20032;-78
2021/07/27 06:07:12;;;;;;;28.17;22.75;;;20.00;99.90;;;;;;5088584;28;20048;-78
2021/07/27 06:09:38;;;;;;;24.55;19.65;;;20.10;99.90;;;;;;5071377;28;20137;-79
2021/07/27 06:12:07;;;;;;;24.27;20.20;;;20.10;99.90;;;;;;5072253;28;20058;-79
2021/07/27 06:14:34;;;;;;;22.88;18.60;;;20.20;99.90;;;;;;5068843;28;20066;-78
2021/07/27 06:17:00;;;;;;;21.60;16.80;;;20.30;99.90;;;;;;5054055;28;20051;-79
2021/07/27 06:19:26;;;;;;;20.02;16.58;;;20.50;99.90;;;;;;5087916;28;20039;-81
2021/07/27 06:21:53;;;;;;;18.65;15.57;;;20.60;99.90;;;;;;5106527;28;20479;-77
2021/07/27 06:24:19;;;;;;;22.13;17.63;;;20.80;99.90;;;;;;5103291;28;20058;-77
2021/07/27 06:26:46;;;;;;;22.17;17.70;;;20.90;99.90;;;;;;5070226;28;20055;-78
2021/07/27 06:29:12;;;;;;;19.10;15.90;;;21.10;99.90;;;;;;5088317;28;20035;-78
2021/07/27 06:31:39;;;;;;;17.63;15.15;;;21.20;99.90;;;;;;5106531;28;20035;-77
2021/07/27 06:34:05;;;;;;;16.02;12.77;;;21.10;99.90;;;;;;5069025;28;20113;-78
2021/07/27 06:36:32;;;;;;;24.30;20.08;;;21.20;99.90;;;;;;5054816;28;20898;-77
2021/07/27 06:38:58;;;;;;;23.45;18.05;;;21.30;99.90;;;;;;5106199;28;20040;-77
2021/07/27 06:41:25;;;;;;;21.95;16.02;;;21.40;99.90;;;;;;5104839;28;20051;-78
2021/07/27 06:43:51;;;;;;;19.27;15.18;;;21.50;99.90;;;;;;5068951;28;20054;-77
2021/07/27 06:46:18;;;;;;;18.15;15.82;;;21.60;99.90;;;;;;5087660;28;20043;-77
2021/07/27 06:48:44;;;;;;;22.05;17.95;;;21.80;99.90;;;;;;5089977;27;20370;-79
2021/07/27 06:51:15;;;;;;;18.35;16.35;;;21.90;99.90;;;;;;5073496;28;20042;-78
2021/07/27 06:53:43;;;;;;;17.48;15.48;;;21.90;99.90;;;;;;5085237;28;20040;-79
2021/07/27 06:56:10;;;;;;;17.70;13.45;;;21.90;99.90;;;;;;5069302;27;20059;-77
2021/07/27 06:58:37;;;;;;;20.75;17.58;;;21.90;99.90;;;;;;5069912;28;20766;-79
2021/07/27 07:01:06;;;;;;;16.88;15.07;;;21.80;99.90;;;;;;5073084;27;20036;-78
2021/07/27 07:03:32;;;;;;;17.13;15.30;;;21.60;99.90;;;;;;5072183;28;20062;-78
2021/07/27 07:05:59;;;;;;;18.30;13.80;;;21.60;99.90;;;;;;5073342;28;20028;-79
2021/07/27 07:08:25;;;;;;;19.20;16.90;;;21.70;99.90;;;;;;5086189;27;20042;-79
2021/07/27 07:11:00;;;;;;;15.65;13.88;;;21.70;99.90;;;;;;5039339;27;20047;-78
2021/07/27 07:13:27;;;;;;;16.90;15.10;;;21.70;99.90;;;;;;5075143;27;20051;-78
2021/07/27 07:15:54;;;;;;;20.10;16.65;;;21.50;99.90;;;;;;5074370;27;20043;-78
2021/07/27 07:18:26;;;;;;;19.95;16.60;;;21.50;99.90;;;;;;5118180;27;20062;-78
2021/07/27 07:20:53;;;;;;;22.85;17.23;;;21.40;99.90;;;;;;5055097;27;20040;-78
2021/07/27 07:23:21;;;;;;;19.52;16.15;;;21.30;99.90;;;;;;5087569;27;20039;-78
2021/07/27 07:25:50;;;;;;;15.93;14.23;;;21.30;99.90;;;;;;5079556;28;20036;-78
2021/07/27 07:28:17;;;;;;;18.73;14.38;;;21.40;99.90;;;;;;5105146;28;20501;-78
2021/07/27 07:30:43;;;;;;;19.45;16.63;;;21.50;99.90;;;;;;5070095;27;20047;-79
2021/07/27 07:33:10;;;;;;;22.33;17.23;;;21.60;99.90;;;;;;5085551;28;20044;-78
2021/07/27 07:35:36;;;;;;;19.63;16.38;;;21.60;99.90;;;;;;5055851;27;20050;-78
2021/07/27 07:38:03;;;;;;;22.10;18.02;;;21.70;99.90;;;;;;5087078;28;20036;-79
2021/07/27 07:40:30;;;;;;;18.63;15.35;;;21.60;99.90;;;;;;5105664;27;20050;-78
2021/07/27 07:43:01;;;;;;;18.08;15.57;;;21.50;99.90;;;;;;5089585;27;20038;-78
2021/07/27 07:45:29;;;;;;;22.08;16.75;;;21.50;99.90;;;;;;5085317;28;20528;-80
2021/07/27 07:47:56;;;;;;;18.55;15.10;;;21.50;99.90;;;;;;5087795;28;20032;-81
2021/07/27 07:50:22;;;;;;;16.63;14.05;;;21.70;99.90;;;;;;5086659;28;20048;-79
2021/07/27 07:53:03;;;;;;;16.90;15.13;;;21.70;99.90;;;;;;5068775;28;20047;-78
2021/07/27 07:55:30;;;;;;;18.23;14.90;;;21.80;99.90;;;;;;5103775;28;20050;-78
2021/07/27 07:57:57;;;;;;;16.08;14.32;;;21.80;99.90;;;;;;5068487;28;20039;-78
2021/07/27 08:00:23;;;;;;;19.42;17.17;;;21.90;99.90;;;;;;5084850;28;20054;-78
2021/07/27 08:02:51;;;;;;;18.05;16.15;;;21.90;99.90;;;;;;5084242;28;20039;-79
2021/07/27 08:05:18;;;;;;;17.42;15.35;;;22.00;99.90;;;;;;5066272;28;20039;-79
2021/07/27 08:07:45;;;;;;;18.33;16.42;;;22.20;99.90;;;;;;5085116;28;20088;-79
2021/07/27 08:10:13;;;;;;;19.17;16.92;;;22.20;99.90;;;;;;5085437;28;20047;-79
2021/07/27 08:12:40;;;;;;;19.30;16.35;;;22.20;99.90;;;;;;5105678;27;20036;-79
2021/07/27 08:15:07;;;;;;;17.23;15.45;;;22.10;99.90;;;;;;5084262;28;20044;-80
2021/07/27 08:17:33;;;;;;;16.00;13.45;;;22.00;99.90;;;;;;5053360;28;20055;-80
2021/07/27 08:20:00;;;;;;;16.95;15.15;;;21.90;99.90;;;;;;5051465;28;20058;-78
2021/07/27 08:22:27;;;;;;;19.05;16.15;;;21.90;99.90;;;;;;5103404;28;20536;-79
2021/07/27 08:24:54;;;;;;;17.83;15.98;;;21.90;99.90;;;;;;5067328;28;20051;-78
2021/07/27 08:27:20;;;;;;;19.33;16.05;;;21.80;99.90;;;;;;5086026;28;20039;-78
2021/07/27 08:29:47;;;;;;;20.10;17.77;;;21.70;99.90;;;;;;5104151;28;20101;-78
2021/07/27 08:32:13;;;;;;;24.08;18.75;;;21.70;99.90;;;;;;5085416;28;20372;-79
2021/07/27 08:34:42;;;;;;;21.27;16.75;;;21.70;99.90;;;;;;5050539;28;20036;-79
2021/07/27 08:37:08;;;;;;;19.02;17.02;;;21.70;99.90;;;;;;5104238;28;20035;-77
2021/07/27 08:39:35;;;;;;;19.73;16.70;;;21.90;99.90;;;;;;5085936;28;20498;-77
2021/07/27 08:42:04;;;;;;;20.17;14.73;;;22.10;99.90;;;;;;5085079;28;20380;-79
2021/07/27 08:44:35;;;;;;;24.23;20.15;;;22.40;99.90;;;;;;5083685;28;20394;-79
2021/07/27 08:47:06;;;;;;;19.87;17.40;;;22.70;99.90;;;;;;5084711;28;20050;-79
2021/07/27 08:49:33;;;;;;;20.40;16.08;;;22.80;99.50;;;;;;5050381;28;20281;-78
2021/07/27 08:52:02;;;;;;;18.65;15.65;;;22.90;99.40;;;;;;5102935;28;20090;-78
2021/07/27 08:54:28;;;;;;;18.10;15.43;;;23.00;99.30;;;;;;5082731;28;20040;-79
2021/07/27 08:56:55;;;;;;;18.67;16.23;;;23.20;99.10;;;;;;5086508;28;20052;-79
2021/07/27 08:59:23;;;;;;;16.77;14.52;;;23.30;98.80;;;;;;5051973;28;20062;-80
2021/07/27 09:01:53;;;;;;;17.00;15.20;;;23.40;98.80;;;;;;5067182;28;20054;-78
2021/07/27 09:04:29;;;;;;;17.30;14.57;;;23.40;98.40;;;;;;5100598;28;20038;-79
2021/07/27 09:07:03;;;;;;;17.70;15.05;;;23.50;98.30;;;;;;5068606;28;20039;-78
2021/07/27 09:09:34;;;;;;;16.85;14.40;;;23.50;98.10;;;;;;5068054;28;20059;-79
2021/07/27 09:12:09;;;;;;;18.43;16.30;;;23.40;98.00;;;;;;5068324;28;20048;-78
2021/07/27 09:14:43;;;;;;;18.33;15.70;;;23.20;98.10;;;;;;5049890;28;20048;-77
2021/07/27 09:17:10;;;;;;;18.02;15.35;;;23.00;98.20;;;;;;5101255;28;20043;-77
2021/07/27 09:19:40;;;;;;;17.00;13.35;;;22.80;98.40;;;;;;5103111;28;20024;-79
2021/07/27 09:22:07;;;;;;;17.15;15.48;;;22.70;98.60;;;;;;5082818;28;20047;-77
2021/07/27 09:24:34;;;;;;;17.00;13.38;;;22.60;98.70;;;;;;5083500;28;20394;-77
2021/07/27 09:27:05;;;;;;;18.35;16.23;;;22.60;98.90;;;;;;5069699;28;20047;-79
2021/07/27 09:29:41;;;;;;;14.00;12.57;;;22.80;98.70;;;;;;5071846;28;20383;-79
2021/07/27 09:32:14;;;;;;;16.67;14.05;;;23.00;98.50;;;;;;5107833;27;20517;-78
2021/07/27 09:34:41;;;;;;;18.70;16.70;;;23.10;98.50;;;;;;5087161;28;20125;-79
2021/07/27 09:37:08;;;;;;;16.10;14.40;;;23.30;98.00;;;;;;5090378;28;20028;-78
2021/07/27 09:39:36;;;;;;;16.00;14.38;;;23.40;97.70;;;;;;5088736;28;20032;-78
2021/07/27 09:42:13;;;;;;;14.65;13.02;;;23.60;97.50;;;;;;5089666;28;20067;-77
2021/07/27 09:44:40;;;;;;;14.80;12.85;;;23.90;96.90;;;;;;5069295;28;20302;-78
2021/07/27 09:47:08;;;;;;;11.82;10.60;;;24.10;96.10;;;;;;5055935;28;20038;-79
2021/07/27 09:49:34;;;;;;;13.93;12.32;;;24.30;95.50;;;;;;5107047;28;20023;-79
2021/07/27 09:52:00;;;;;;;11.25;10.23;;;24.60;95.00;;;;;;5088696;28;20040;-78
2021/07/27 09:54:27;;;;;;;13.27;10.18;;;24.90;94.40;;;;;;5069889;28;20055;-78
2021/07/27 09:56:55;;;;;;;11.52;10.07;;;25.30;93.80;;;;;;5071834;28;20596;-79
2021/07/27 09:59:25;;;;;;;10.60;9.07;;;25.30;93.30;;;;;;5083602;28;20083;-79
2021/07/27 10:01:54;;;;;;;11.50;10.32;;;25.20;93.10;;;;;;5103011;28;20038;-79
2021/07/27 10:04:26;;;;;;;10.27;8.75;;;25.10;92.60;;;;;;5107423;27;20020;-79
2021/07/27 10:06:52;;;;;;;7.47;6.68;;;25.10;92.60;;;;;;5102354;28;20031;-79
2021/07/27 10:09:30;;;;;;;8.50;7.78;;;25.20;92.60;;;;;;5071902;28;20050;-79
2021/07/27 10:12:14;;;;;;;9.00;7.47;;;25.40;92.40;;;;;;5054499;28;20044;-79
2021/07/27 10:14:44;;;;;;;9.13;7.63;;;25.70;92.10;;;;;;5086109;27;20047;-80
2021/07/27 10:17:15;;;;;;;9.07;8.15;;;25.90;91.90;;;;;;5085445;28;20379;-79
2021/07/27 10:19:50;;;;;;;9.27;8.32;;;26.10;91.50;;;;;;5088273;28;20398;-80
2021/07/27 10:22:17;;;;;;;11.55;8.40;;;26.20;91.00;;;;;;5071403;28;20043;-80
2021/07/27 10:24:48;;;;;;;8.10;7.30;;;26.20;90.70;;;;;;5106341;27;20070;-79
2021/07/27 10:27:21;;;;;;;8.27;7.35;;;26.10;90.10;;;;;;5109188;27;20584;-80
2021/07/27 10:29:48;;;;;;;11.15;8.70;;;26.10;90.10;;;;;;5110527;27;20042;-80
2021/07/27 10:32:22;;;;;;;8.88;7.75;;;25.80;89.90;;;;;;5107215;27;20044;-79
2021/07/27 10:34:52;;;;;;;10.30;8.35;;;25.60;90.20;;;;;;5084815;28;20475;-81
2021/07/27 10:37:19;;;;;;;8.57;7.72;;;25.60;90.20;;;;;;5076484;28;20043;-83
2021/07/27 10:39:50;;;;;;;9.02;7.70;;;25.60;90.30;;;;;;5090017;28;20046;-84
2021/07/27 10:42:17;;;;;;;6.85;6.25;;;25.70;90.10;;;;;;5074095;28;20493;-81
2021/07/27 10:44:44;;;;;;;7.38;6.63;;;25.70;90.00;;;;;;5087553;28;20496;-81
2021/07/27 10:47:21;;;;;;;8.55;7.80;;;25.70;89.60;;;;;;5087914;28;20031;-80
2021/07/27 10:50:08;;;;;;;12.35;9.13;;;25.60;89.40;;;;;;5070813;28;20943;-81
2021/07/27 10:52:34;;;;;;;11.25;9.20;;;25.40;89.20;;;;;;5088058;28;20047;-80
2021/07/27 10:55:06;;;;;;;12.80;9.40;;;25.30;89.60;;;;;;5068877;28;20044;-81
2021/07/27 10:57:37;;;;;;;12.23;9.90;;;25.10;89.70;;;;;;5086445;28;20505;-80
2021/07/27 11:00:05;;;;;;;10.60;9.43;;;25.00;90.00;;;;;;5070681;28;20044;-78
2021/07/27 11:02:32;;;;;;;9.60;8.68;;;25.00;90.20;;;;;;5086267;28;20031;-78
2021/07/27 11:04:58;;;;;;;10.55;9.20;;;25.00;90.40;;;;;;5086284;28;20042;-77
2021/07/27 11:07:27;;;;;;;12.57;10.93;;;25.10;90.50;;;;;;5106227;28;20137;-77
2021/07/27 11:09:59;;;;;;;12.07;10.85;;;25.10;90.40;;;;;;5088192;28;20039;-78
2021/07/27 11:12:38;;;;;;;9.77;8.77;;;25.20;90.30;;;;;;5106342;28;20478;-80
2021/07/27 11:15:25;;;;;;;9.55;8.65;;;25.10;90.40;;;;;;5070184;28;20054;-80
2021/07/27 11:18:03;;;;;;;10.32;9.27;;;25.10;90.40;;;;;;5073973;28;20047;-79
2021/07/27 11:20:37;;;;;;;9.40;8.15;;;25.10;90.30;;;;;;5053925;28;20055;-81
2021/07/27 11:23:19;;;;;;;9.20;8.02;;;25.00;90.40;;;;;;5039993;28;20433;-80
2021/07/27 11:25:57;;;;;;;9.20;8.32;;;25.10;90.70;;;;;;5068517;28;20044;-80
2021/07/27 11:28:33;;;;;;;9.95;8.95;;;25.30;90.50;;;;;;5054347;28;20048;-81
2021/07/27 11:31:00;;;;;;;9.90;7.25;;;25.70;90.40;;;;;;5071471;28;20158;-79
2021/07/27 11:33:26;;;;;;;8.73;7.82;;;26.20;90.00;;;;;;5084832;28;20036;-79
2021/07/27 11:35:54;;;;;;;10.85;9.27;;;26.60;89.00;;;;;;5072360;28;20044;-79
2021/07/27 11:38:29;;;;;;;11.02;8.60;;;26.70;87.50;;;;;;5073100;28;20039;-79
2021/07/27 11:41:03;;;;;;;10.95;9.75;;;26.70;87.10;;;;;;5088020;28;20368;-86
2021/07/27 11:43:35;;;;;;;10.93;8.98;;;26.40;86.50;;;;;;5088149;28;20044;-87
2021/07/27 11:46:12;;;;;;;9.60;8.65;;;26.10;87.20;;;;;;5106939;28;20039;-79
2021/07/27 11:48:43;;;;;;;25.65;8.13;;;25.60;87.70;;;;;;5105184;28;20372;-80
2021/07/27 11:51:10;;;;;;;5.03;3.95;;;24.80;90.90;;;;;;5090275;28;20039;-80
2021/07/27 11:53:39;;;;;;;6.93;3.40;;;23.10;93.00;;;;;;5103109;28;20031;-81
2021/07/27 11:56:10;;;;;;;5.50;2.40;;;21.60;95.50;;;;;;5084724;28;20043;-78
2021/07/27 11:58:40;;;;;;;4.80;2.35;;;20.30;97.90;;;;;;5088968;28;20054;-81
2021/07/27 12:01:07;;;;;;;2.78;1.83;;;19.60;99.90;;;;;;5071411;28;20074;-81
2021/07/27 12:03:34;;;;;;;3.72;2.38;;;19.20;99.90;;;;;;5087907;28;20517;-81
2021/07/27 12:06:14;;;;;;;19.45;3.30;;;19.00;99.90;;;;;;5058179;28;20079;-79
2021/07/27 12:08:41;;;;;;;4.32;2.80;;;18.90;99.90;;;;;;5086608;28;20028;-77
2021/07/27 12:11:09;;;;;;;4.20;3.08;;;18.80;99.90;;;;;;5106332;27;20491;-77
2021/07/27 12:13:35;;;;;;;4.22;3.40;;;18.80;99.90;;;;;;5101678;28;20031;-77
2021/07/27 12:16:03;;;;;;;3.80;2.85;;;18.90;99.90;;;;;;5017801;28;20047;-77
2021/07/27 12:18:30;;;;;;;4.60;4.10;;;18.90;99.90;;;;;;5085894;28;20039;-77
2021/07/27 12:20:56;;;;;;;4.93;4.32;;;19.00;99.90;;;;;;5067308;28;20051;-77
2021/07/27 12:23:24;;;;;;;5.72;3.80;;;19.20;99.90;;;;;;5066472;28;20054;-77
2021/07/27 12:25:52;;;;;;;4.05;3.15;;;19.30;99.90;;;;;;5084298;28;20039;-77
2021/07/27 12:28:19;;;;;;;6.10;3.80;;;19.40;99.90;;;;;;5103721;28;20375;-78
2021/07/27 12:30:47;;;;;;;4.72;4.03;;;19.50;99.90;;;;;;5067806;28;20055;-77
2021/07/27 12:33:15;;;;;;;5.53;4.40;;;19.80;99.90;;;;;;5077855;28;20023;-78
2021/07/27 12:35:42;;;;;;;5.47;4.13;;;20.10;99.90;;;;;;5085456;28;20031;-78
2021/07/27 12:38:10;;;;;;;3.13;2.70;;;20.40;99.90;;;;;;5085183;28;20046;-78
2021/07/27 12:40:38;;;;;;;4.82;3.50;;;20.50;99.90;;;;;;5068983;28;20098;-78
2021/07/27 12:43:05;;;;;;;4.35;3.40;;;20.60;99.90;;;;;;5068038;28;20043;-78
2021/07/27 12:45:33;;;;;;;5.53;3.38;;;20.60;99.90;;;;;;5084202;28;20050;-78
2021/07/27 12:48:00;;;;;;;4.25;3.42;;;20.70;99.90;;;;;;5068674;28;20050;-78
2021/07/27 12:50:27;;;;;;;5.88;3.85;;;20.90;99.90;;;;;;5087076;28;20909;-78
2021/07/27 12:52:53;;;;;;;5.47;4.43;;;21.20;99.90;;;;;;5035070;28;20059;-78
2021/07/27 12:55:20;;;;;;;6.45;4.28;;;21.50;99.90;;;;;;5067823;28;20043;-78
2021/07/27 12:57:46;;;;;;;4.15;3.35;;;22.00;99.90;;;;;;5085444;28;20054;-78
2021/07/27 13:00:13;;;;;;;5.80;3.63;;;22.50;99.90;;;;;;5052878;27;20071;-78